Tiempo atmosférico en la estación meteorológica de Renteria, Gipuzkoa (165 m.)



Fecha
DESCASC
Temp. máxima en grados centígrados (hora)
DESCASC
Temp. mínima en grados centígrados (hora)
DESCASC
Temp. media en grados centígrados
DESCASC
Racha de viento máxima en m/sg (hora)
DESCASC
Velocidad máxima media en intervalos de 10 minutos(hora)
DESCASC
Precipitaciones diarias en mm
DESCASC
Precipitaciones de 00:00 a 06:00 en mm
DESCASC
Precipitaciones de 06:00 a 12:00 en mm
DESCASC
Precipitaciones de 12:00 a 18:00 en mm
DESCASC
Precipitaciones de 18:00 a 24:00 en mm
DESCASC
21-02-2021 18.4 (13:00) 9.2 (23:59) 13.8 19.44 (06:50) 9.72 (06:40) 3.6 0 0 0 3.6
20-02-2021 23.1 (15:40) 17 (07:30) 20.1 25.56 (08:10) 14.17 (08:10) 0 0 0 0 0
19-02-2021 21.8 (15:30) 7.7 (04:10) 14.7 16.39 (22:30) 8.06 (16:20) 0.2 0.2 0 0 0
18-02-2021 19 (13:00) 9.7 (00:00) 14.3 15.83 (00:50) 8.06 (07:10) 0.2 0 0 0.2 0
17-02-2021 20.8 (15:10) 5.4 (00:00) 13.1 13.33 (17:30) 7.78 (17:30) 0 0 0 0 0
16-02-2021 19.5 (14:10) 7.9 (00:00) 13.7 15.83 (00:50) 9.17 (03:10) 0 0 0 0 0
15-02-2021 18.4 (15:00) 11.5 (00:00) 14.9 17.78 (18:00) 9.17 (21:20) 0 0 0 0 0
14-02-2021 18.2 (15:50) 3.6 (00:00) 10.9 16.39 (23:00) 7.22 (18:50) 0 0 0 0 0
13-02-2021 15.8 (14:30) 6 (00:00) 10.9 4.44 (01:00) 1.67 (15:20) 1.2 1 0 0.2 0
12-02-2021 16 (01:50) 10.6 (00:00) 13.3 14.44 (06:30) 9.17 (06:30) 57.4 0 14.2 19.4 23.8
11-02-2021 19.5 (15:40) 3.9 (00:00) 11.7 5.28 (23:20) 3.61 (22:00) 0.2 0.2 0 0 0
10-02-2021 10.2 (02:50) 6.6 (00:00) 8.4 10.56 (01:30) 4.44 (01:30) 2.9 0 1.3 1.6 0
09-02-2021 13.3 (12:50) 7.7 (00:00) 10.5 15.28 (06:20) 8.89 (10:00) 2.4 0 0 2.4 0
08-02-2021 13.5 (15:20) 7.9 (00:00) 10.7 10.28 (05:20) 5 (03:20) 11.4 1.8 5.8 2.8 1
07-02-2021 11.3 (15:50) 5.5 (00:00) 8.4 6.11 (23:59) 2.5 (13:40) 8.8 7 1 0 0.8
06-02-2021 10.7 (13:40) 6.1 (00:00) 8.4 11.39 (15:20) 3.89 (15:20) 45.4 0 6.2 37.4 1.8
05-02-2021 14 (13:40) 10.3 (00:00) 12.2 2.78 (06:50) 1.39 (11:30) 1.2 0.2 0.6 0 0.4
04-02-2021 16.4 (15:00) 11.5 (00:00) 13.9 10.83 (01:00) 5.83 (01:00) 0 0 0 0 0
03-02-2021 19.1 (13:50) 13.1 (00:00) 16.1 15 (03:50) 10.28 (00:20) 0 0 0 0 0
02-02-2021 21.2 (14:40) 8.7 (00:00) 15 10.83 (18:50) 6.67 (18:50) 0 0 0 0 0
01-02-2021 13.8 (00:00) 10.8 (00:00) 12.3 12.5 (09:40) 5 (09:30) 6.8 2.2 0.2 1 3.4
31-01-2021 14.6 (17:10) 9.1 (00:00) 11.9 12.78 (02:30) 4.44 (01:20) 10.6 2.2 5 2.8 0.6
30-01-2021 16.9 (03:20) 9.4 (00:00) 13.1 14.72 (02:50) 6.94 (00:20) 20.6 6.6 10.6 3 0.4
29-01-2021 16.3 (16:30) 10.2 (00:00) 13.2 10.28 (23:59) 5.56 (23:59) 7.8 0.4 6.8 0.6 0
28-01-2021 20.7 (16:30) 10.1 (00:00) 15.4 4.44 (21:10) 2.78 (05:40) 1.4 1.4 0 0 0
27-01-2021 14.9 (17:10) 10.9 (00:00) 12.9 8.89 (09:40) 3.06 (10:50) 41.6 17.6 17.8 4.8 1.4
26-01-2021 12.9 (17:10) 1 (00:00) 6.9 3.06 (01:10) 1.39 (16:40) 5.4 0 0 0 5.4
25-01-2021 9 (13:40) 5.8 (00:00) 7.4 6.67 (16:30) 3.61 (16:30) 9.4 2.4 3 2.6 1.4

Gráficas

Temp. máximas Temp. mínimas Temp. medias Precipitaciones Rachas de viento máximas Velocidades máximas media en intervalos de 10 minutos

Datos horarios

Fecha y hora oficial Temperatura (ºC) Velocidad del viento (km/h) Dirección del viento Racha (km/h) Dirección de racha Precipitación (mm) Presión (hPa) Tendencia (hPa) Humedad (%)
2021-02-23 23:00:00 15 23 Sudeste 44 Sudeste 0 -- -- 57
2021-02-23 22:00:00 15.2 16 Sudeste 40 Este 0 -- -- 56
2021-02-23 21:00:00 15.4 16 Sudeste 36 Sudeste 0 -- -- 55
2021-02-23 20:00:00 15.4 12 Sur 50 Sudeste 0 -- -- 55
2021-02-23 19:00:00 15.8 25 Sur 55 Sudeste 0 -- -- 52
2021-02-23 18:00:00 16.9 39 Sudeste 63 Sur 0 -- -- 50
2021-02-23 17:00:00 17.8 26 Sur 52 Este 0 -- -- 47
2021-02-23 16:00:00 18.5 16 Sur 59 Sur 0 -- -- 48
2021-02-23 15:00:00 18.1 25 Sur 56 Sudoeste 0 -- -- 50
2021-02-23 14:00:00 18 20 Sur 57 Sudoeste 0.2 -- -- 54
2021-02-23 13:00:00 16.8 17 Sudeste 46 Nordeste 0 -- -- 57
2021-02-23 12:00:00 15.7 17 Este 37 Este 0 -- -- 59
2021-02-23 11:00:00 14.3 15 Este 41 Este 0 -- -- 63
2021-02-23 10:00:00 13.6 20 Sudeste 37 Este 0 -- -- 63
2021-02-23 09:00:00 12.3 6 Sudeste 25 Sudeste 0 -- -- 68
2021-02-23 08:00:00 11.1 10 Sudeste 23 Este 0 -- -- 72
2021-02-23 07:00:00 10.7 10 Sudeste 21 Sudeste 0 -- -- 74
2021-02-23 06:00:00 10 8 Sur 23 Sudeste 0 -- -- 82
2021-02-23 05:00:00 6.6 4 Norte 10 Norte 0 -- -- 100
2021-02-23 04:00:00 5.3 0 Calma 10 Noroeste 0 -- -- 100
2021-02-23 03:00:00 5.6 3 Norte 6 Nordeste 0 -- -- 100
2021-02-23 02:00:00 5.7 2 Sudoeste 5 Este 0 -- -- 100
2021-02-23 01:00:00 6.4 3 Este 8 Este 0 -- -- 99
2021-02-23 00:00:00 7.3 0 Calma 12 Este 0 -- -- 98
2021-02-22 23:00:00 7.9 8 Este 16 Este 0 -- -- 99
2021-02-22 22:00:00 8.4 3 Nordeste 10 Este 0 -- -- 99
2021-02-22 21:00:00 8.4 0 Calma 4 Nordeste 0 -- -- 100
2021-02-22 20:00:00 8.5 2 Sudoeste 6 Sudeste 0.4 -- -- 99
2021-02-22 19:00:00 8.9 0 Calma -- -- 0.4 -- -- 97
2021-02-22 18:00:00 9.3 0 Calma -- -- 0 -- -- 96
2021-02-22 17:00:00 9.4 0 Calma -- -- 0.6 -- -- 96
2021-02-22 16:00:00 9.8 0 Calma 9 Sur 0.6 -- -- 95
2021-02-22 15:00:00 10.1 0 Calma 8 Oeste 0 -- -- 87
2021-02-22 14:00:00 9.7 3 Sudoeste 22 Sur 0.2 -- -- 96
2021-02-22 13:00:00 9.3 0 Calma 14 Sudoeste 0.4 -- -- 97
2021-02-22 12:00:00 8.6 2 Sudeste 15 Sudoeste 1.2 -- -- 93
2021-02-22 11:00:00 8.2 4 Sur 10 Oeste 3.2 -- -- 99
2021-02-22 10:00:00 7.9 0 Calma 10 Sur 7.6 -- -- 98
2021-02-22 09:00:00 7.9 3 Sur 13 Sudoeste 3.8 -- -- 95
2021-02-22 08:00:00 7.8 0 Calma 11 Sudoeste 4 -- -- 96
2021-02-22 07:00:00 7.8 3 Sudoeste 9 Sudoeste 3.6 -- -- 97
2021-02-22 06:00:00 7.8 3 Sudoeste 17 Sudoeste 2 -- -- 95
2021-02-22 05:00:00 7.8 3 Norte 13 Norte 2.4 -- -- 96
2021-02-22 04:00:00 7.9 6 Sudoeste 15 Oeste 4 -- -- 96
2021-02-22 03:00:00 8.1 0 Calma 10 Norte 4 -- -- 97
2021-02-22 02:00:00 8.4 0 Calma 13 Nordeste 3.4 -- -- 97
2021-02-22 01:00:00 8.7 3 Nordeste 21 Norte 3 -- -- 96
2021-02-22 00:00:00 9.2 7 Noroeste 19 Noroeste 3.2 -- -- 95
2021-02-21 23:00:00 10.2 4 Norte 13 Norte 0.4 -- -- 94
2021-02-21 22:00:00 10.7 8 Noroeste 24 Norte 0 -- -- 93
2021-02-21 21:00:00 12.6 12 Norte 25 Nordeste 0 -- -- 82
2021-02-21 20:00:00 16.3 7 Sur 38 Este 0 -- -- 51
2021-02-21 19:00:00 16.2 11 Sudeste 26 Sudeste 0 -- -- 52
2021-02-21 18:00:00 16.1 9 Sur 36 Sudeste 0 -- -- 52
2021-02-21 17:00:00 16.4 11 Sur 31 Sur 0 -- -- 51
2021-02-21 16:00:00 17.4 17 Sudeste 48 Sur 0 -- -- 47
2021-02-21 15:00:00 17 31 Sudeste 59 Sudeste 0 -- -- 47
2021-02-21 14:00:00 18 13 Sur 39 Sudeste 0 -- -- 37
2021-02-21 13:00:00 18.4 18 Sur 51 Sudeste 0 -- -- 35
2021-02-21 12:00:00 17.8 23 Sur 50 Sudeste 0 -- -- 34
2021-02-21 11:00:00 17.6 26 Sudeste 54 Sudeste 0 -- -- 33
2021-02-21 10:00:00 16.5 22 Sur 68 Este 0 -- -- 34
2021-02-21 09:00:00 15.7 22 Sur 58 Sur 0 -- -- 36
2021-02-21 08:00:00 15.5 26 Sur 68 Sudeste 0 -- -- 37
2021-02-21 07:00:00 15.2 35 Sur 70 Sudeste 0 -- -- 39
2021-02-21 06:00:00 15.1 25 Sudeste 63 Este 0 -- -- 40
2021-02-21 05:00:00 15.3 22 Este 47 Sudeste 0 -- -- 39
2021-02-21 04:00:00 15.7 16 Sudeste 53 Este 0 -- -- 39
2021-02-21 03:00:00 16.3 15 Este 47 Nordeste 0 -- -- 38
2021-02-21 02:00:00 16.7 26 Este 53 Este 0 -- -- 38
2021-02-21 01:00:00 17.5 19 Este 44 Este 0 -- -- 36
2021-02-21 00:00:00 18.2 12 Este 37 Nordeste 0 -- -- 35
2021-02-20 23:00:00 18.6 9 Sudeste 39 Sudeste 0 -- -- 35
2021-02-20 22:00:00 19.2 14 Sudeste 52 Sudeste 0 -- -- 33
2021-02-20 21:00:00 19.4 18 Sur 36 Sur 0 -- -- 34
2021-02-20 20:00:00 19.8 14 Sudeste 43 Sudeste 0 -- -- 33
2021-02-20 19:00:00 20.6 14 Sudeste 42 Sudoeste 0 -- -- 29
2021-02-20 18:00:00 22.1 15 Sudeste 54 Este 0 -- -- 27
2021-02-20 17:00:00 23 13 Sudeste 65 Sur 0 -- -- 27
2021-02-20 16:00:00 22.8 18 Sudeste 63 Sudeste 0 -- -- 25
2021-02-20 15:00:00 22.3 24 Sur 64 Este 0 -- -- 27
2021-02-20 14:00:00 22.1 37 Sur 67 Sur 0 -- -- 27
2021-02-20 13:00:00 21.5 29 Sur 57 Sur 0 -- -- 28
2021-02-20 12:00:00 20 30 Sur 61 Sur 0 -- -- 33
2021-02-20 11:00:00 18.5 25 Sur 64 Sur 0 -- -- 36
2021-02-20 10:00:00 17.5 31 Sur 63 Sur 0 -- -- 37
2021-02-20 09:00:00 17.3 26 Sur 92 Sur 0 -- -- 36
2021-02-20 08:00:00 17.2 47 Sudoeste 79 Sudoeste 0 -- -- 36
2021-02-20 07:00:00 17.3 33 Sudoeste 78 Sudoeste 0 -- -- 36
2021-02-20 06:00:00 17.8 35 Sur 74 Sur 0 -- -- 33
2021-02-20 05:00:00 17.7 21 Sur 41 Sur 0 -- -- 35
2021-02-20 04:00:00 18.5 17 Sudeste 50 Sudoeste 0 -- -- 31
2021-02-20 03:00:00 18.5 19 Sur 54 Sudeste 0 -- -- 32
2021-02-20 02:00:00 18.7 18 Sudeste 58 Sudoeste 0 -- -- 33
2021-02-20 01:00:00 18.6 19 Sur 67 Sur 0 -- -- 35
2021-02-20 00:00:00 18.8 19 Sudeste 51 Este 0 -- -- 33
2021-02-19 23:00:00 18.6 19 Sur 59 Nordeste 0 -- -- 35
2021-02-19 22:00:00 18.6 23 Sur 53 Sudeste 0 -- -- 36
2021-02-19 21:00:00 18.8 16 Sudeste 45 Sudeste 0 -- -- 38
2021-02-19 20:00:00 18.9 10 Sudeste 35 Sudeste 0 -- -- 38
2021-02-19 19:00:00 19.3 12 Sudeste 39 Sudeste 0 -- -- 37
2021-02-19 18:00:00 19.9 13 Sur 46 Sudoeste 0 -- -- 36
2021-02-19 17:00:00 20.8 23 Sur 49 Sur 0 -- -- 37
2021-02-19 16:00:00 21.5 13 Sur 42 Sur 0 -- -- 34
2021-02-19 15:00:00 21.4 19 Sur 39 Sudoeste 0 -- -- 37
2021-02-19 14:00:00 20.6 18 Sur 55 Sur 0 -- -- 36
2021-02-19 13:00:00 20 13 Sur 45 Sur 0 -- -- 36
2021-02-19 12:00:00 18.8 14 Sudeste 48 Este 0 -- -- 40
2021-02-19 11:00:00 17.3 20 Sudeste 43 Este 0 -- -- 40
2021-02-19 10:00:00 16.1 9 Sudeste 37 Sudoeste 0 -- -- 45
2021-02-19 09:00:00 14.7 13 Sudeste 42 Sur 0 -- -- 47
2021-02-19 08:00:00 13.9 12 Sur 40 Sudeste 0 -- -- 52
2021-02-19 07:00:00 14.3 14 Sudeste 33 Sudeste 0 -- -- 51
2021-02-19 06:00:00 10.8 10 Sur 15 Sudeste 0.2 -- -- 69
2021-02-19 05:00:00 8.2 5 Noroeste 13 Noroeste 0 -- -- 96
2021-02-19 04:00:00 7.8 8 Norte 13 Norte 0 -- -- 100
2021-02-19 03:00:00 8.1 5 Norte 13 Noroeste 0 -- -- 100
2021-02-19 02:00:00 8.5 4 Norte 11 Norte 0 -- -- 98
2021-02-19 01:00:00 9.1 5 Norte 10 Norte 0 -- -- 97
2021-02-19 00:00:00 9.7 3 Noroeste 12 Nordeste 0 -- -- 95
2021-02-18 23:00:00 9.9 3 Nordeste 7 Norte 0 -- -- 95
2021-02-18 22:00:00 10.2 2 Noroeste 9 Noroeste 0 -- -- 95
2021-02-18 21:00:00 10.8 3 Sur 9 Nordeste 0 -- -- 91
2021-02-18 20:00:00 11 0 Calma 4 Noroeste 0 -- -- 90
2021-02-18 19:00:00 11.2 0 Calma 7 Noroeste 0 -- -- 89
2021-02-18 18:00:00 11.6 3 Norte 7 Nordeste 0 -- -- 89
2021-02-18 17:00:00 12.2 3 Norte 6 Norte 0 -- -- 87
2021-02-18 16:00:00 12.5 0 Calma 12 Noroeste 0.2 -- -- 86
2021-02-18 15:00:00 13.6 6 Norte 22 Norte 0 -- -- 77
2021-02-18 14:00:00 15.1 14 Norte 28 Norte 0 -- -- 71
2021-02-18 13:00:00 19 16 Sur 55 Sur 0 -- -- 42
2021-02-18 12:00:00 17.5 17 Sur 36 Sur 0 -- -- 44
2021-02-18 11:00:00 16.2 22 Sur 44 Sur 0 -- -- 46
2021-02-18 10:00:00 16.2 18 Sur 44 Sur 0 -- -- 46
2021-02-18 09:00:00 16.2 18 Sur 38 Sur 0 -- -- 43
2021-02-18 08:00:00 16.4 21 Sur 46 Sur 0 -- -- 44
2021-02-18 07:00:00 16.6 27 Sur 52 Sur 0 -- -- 43
2021-02-18 06:00:00 16.5 12 Sur 50 Sudoeste 0 -- -- 47
2021-02-18 05:00:00 17 18 Sur 51 Sudoeste 0 -- -- 46
2021-02-18 04:00:00 16.4 16 Sur 34 Sudoeste 0 -- -- 49
2021-02-18 03:00:00 17 23 Sudeste 43 Sudeste 0 -- -- 48
2021-02-18 02:00:00 17.1 23 Sur 50 Sur 0 -- -- 50
2021-02-18 01:00:00 17.3 27 Sur 57 Sur 0 -- -- 50
2021-02-18 00:00:00 17.1 20 Sudeste 42 Sur 0 -- -- 54
2021-02-17 23:00:00 17.3 16 Sur 43 Sur 0 -- -- 53
2021-02-17 22:00:00 17.3 16 Sur 40 Sur 0 -- -- 53
2021-02-17 21:00:00 17.2 15 Sur 30 Sur 0 -- -- 57
2021-02-17 20:00:00 17.4 17 Sur 36 Sur 0 -- -- 54
2021-02-17 19:00:00 17.3 14 Sur 34 Sudoeste 0 -- -- 54
2021-02-17 18:00:00 17.6 5 Norte 48 Sur 0 -- -- 54
2021-02-17 17:00:00 17.8 14 Sur 32 Sur 0 -- -- 54
2021-02-17 16:00:00 19.7 19 Sur 33 Sur 0 -- -- 49
2021-02-17 15:00:00 20.7 15 Sur 40 Sur 0 -- -- 41
2021-02-17 14:00:00 17.8 10 Sudeste 28 Sudeste 0 -- -- 53
2021-02-17 13:00:00 17.1 9 Este 28 Sur 0 -- -- 55
2021-02-17 12:00:00 17.4 16 Sur 36 Sur 0 -- -- 57
2021-02-17 11:00:00 16.6 15 Sur 32 Sur 0 -- -- 63
2021-02-17 10:00:00 11 4 Sur 17 Sudoeste 0 -- -- 85
2021-02-17 09:00:00 8.6 6 Norte 13 Norte 0 -- -- 100
2021-02-17 08:00:00 6.9 10 Norte 14 Norte 0 -- -- 100
2021-02-17 07:00:00 6.1 6 Noroeste 10 Norte 0 -- -- 100
2021-02-17 06:00:00 5.7 3 Norte 8 Norte 0 -- -- 100
2021-02-17 05:00:00 5.5 5 Norte 9 Noroeste 0 -- -- 100
2021-02-17 04:00:00 5.8 2 Noroeste 7 Norte 0 -- -- 100
2021-02-17 03:00:00 6 2 Norte 6 Norte 0 -- -- 100
2021-02-17 02:00:00 6.6 0 Calma 7 Noroeste 0 -- -- 99
2021-02-17 01:00:00 7.3 0 Calma 9 Norte 0 -- -- 99
2021-02-17 00:00:00 7.9 3 Norte 8 Noroeste 0 -- -- 99
2021-02-16 23:00:00 8.8 3 Norte 6 Noroeste 0 -- -- 97
2021-02-16 22:00:00 9.5 6 Noroeste 9 Noroeste 0 -- -- 94
2021-02-16 21:00:00 10.7 3 Noroeste 9 Noroeste 0 -- -- 87
2021-02-16 20:00:00 11.4 5 Noroeste 9 Norte 0 -- -- 81
2021-02-16 19:00:00 12.2 4 Nordeste 8 Este 0 -- -- 77
2021-02-16 18:00:00 12.4 0 Calma 7 Este 0 -- -- 76
2021-02-16 17:00:00 12.7 5 Nordeste 13 Norte 0 -- -- 75
2021-02-16 16:00:00 13.8 5 Norte 22 Norte 0 -- -- 70
2021-02-16 15:00:00 15.9 8 Norte 29 Norte 0 -- -- 65
2021-02-16 14:00:00 19.2 21 Sudoeste 43 Oeste 0 -- -- 44
2021-02-16 13:00:00 16.5 22 Sur 36 Sudoeste 0 -- -- 52
2021-02-16 12:00:00 15.1 16 Sur 32 Sur 0 -- -- 53
2021-02-16 11:00:00 14.8 18 Sur 35 Sur 0 -- -- 54
2021-02-16 10:00:00 14.1 24 Sur 50 Sur 0 -- -- 55
2021-02-16 09:00:00 12.7 17 Este 35 Este 0 -- -- 61
2021-02-16 08:00:00 12.6 11 Este 46 Este 0 -- -- 62
2021-02-16 07:00:00 12.6 27 Sudeste 51 Este 0 -- -- 63
2021-02-16 06:00:00 12.7 30 Este 49 Este 0 -- -- 63
2021-02-16 05:00:00 13.2 28 Sudeste 50 Sudeste 0 -- -- 63
2021-02-16 04:00:00 13.2 21 Sudeste 57 Sudeste 0 -- -- 64
2021-02-16 03:00:00 13.4 28 Sudeste 49 Sudeste 0 -- -- 62
2021-02-16 02:00:00 13.4 26 Sudeste 51 Sudeste 0 -- -- 64
2021-02-16 01:00:00 13.1 27 Sudeste 57 Sudeste 0 -- -- 64
2021-02-16 00:00:00 13.3 26 Sudeste 54 Sudeste 0 -- -- 64
2021-02-15 23:00:00 13.2 12 Sur 52 Sudeste 0 -- -- 64
2021-02-15 22:00:00 13.6 25 Sur 58 Sudeste 0 -- -- 59
2021-02-15 21:00:00 14.1 30 Sur 50 Sudeste 0 -- -- 59
2021-02-15 20:00:00 13.8 15 Sudeste 43 Sudeste 0 -- -- 62
2021-02-15 19:00:00 14 22 Sudeste 57 Sudeste 0 -- -- 61
2021-02-15 18:00:00 15 22 Sudeste 64 Este 0 -- -- 56
2021-02-15 17:00:00 16.6 22 Sudeste 44 Sudeste 0 -- -- 53
2021-02-15 16:00:00 16.9 23 Sudeste 45 Sudeste 0 -- -- 50
2021-02-15 15:00:00 18.4 11 Sudeste 43 Sudeste 0 -- -- 48
2021-02-15 14:00:00 15.7 20 Sudeste 39 Sudeste 0 -- -- 49
2021-02-15 13:00:00 15.5 13 Sur 40 Este 0 -- -- 53
2021-02-15 12:00:00 14.8 19 Este 42 Este 0 -- -- 53
2021-02-15 11:00:00 13.8 21 Sudeste 39 Sudeste 0 -- -- 56
2021-02-15 10:00:00 13 12 Sudeste 37 Sudeste 0 -- -- 60
2021-02-15 09:00:00 12.5 19 Sudeste 44 Sudeste 0 -- -- 59
2021-02-15 08:00:00 12.2 18 Sudeste 33 Sur 0 -- -- 60
2021-02-15 07:00:00 12.3 19 Sudeste 36 Este 0 -- -- 61
2021-02-15 06:00:00 12.1 13 Sudeste 28 Este 0 -- -- 62
2021-02-15 05:00:00 12 9 Sudeste 26 Este 0 -- -- 63
2021-02-15 04:00:00 11.8 10 Sur 47 Oeste 0 -- -- 65
2021-02-15 03:00:00 11.6 13 Sur 49 Este 0 -- -- 66
2021-02-15 02:00:00 11.9 18 Sur 39 Sur 0 -- -- 66
2021-02-15 01:00:00 12.4 17 Sur 50 Sur 0 -- -- 65
2021-02-15 00:00:00 13 18 Sur 58 Sur 0 -- -- 62
2021-02-14 23:00:00 13.5 22 Sudeste 59 Este 0 -- -- 61
2021-02-14 22:00:00 13.9 21 Sur 51 Sudoeste 0 -- -- 60
2021-02-14 21:00:00 14.1 20 Sur 46 Sudoeste 0 -- -- 60
2021-02-14 20:00:00 14.4 14 Sudeste 49 Sur 0 -- -- 59
2021-02-14 19:00:00 14.9 23 Sudeste 49 Sudeste 0 -- -- 57
2021-02-14 18:00:00 15.5 13 Sur 37 Sudoeste 0 -- -- 57
2021-02-14 17:00:00 17 17 Sudeste 32 Sudeste 0 -- -- 51
2021-02-14 16:00:00 17.8 21 Sudeste 39 Este 0 -- -- 48
2021-02-14 15:00:00 17.5 17 Sudeste 42 Este 0 -- -- 51
2021-02-14 14:00:00 17.3 11 Sur 35 Sudoeste 0 -- -- 54
2021-02-14 13:00:00 16.7 15 Este 38 Sur 0 -- -- 51
2021-02-14 12:00:00 15.5 19 Sudeste 38 Este 0 -- -- 58
2021-02-14 11:00:00 14.5 16 Este 29 Este 0 -- -- 66
2021-02-14 10:00:00 9.1 11 Sudeste 20 Sudeste 0 -- -- 88
2021-02-14 09:00:00 5.5 8 Norte 14 Norte 0 -- -- 100
2021-02-14 08:00:00 4.1 4 Norte 9 Noroeste 0 -- -- 100
2021-02-14 07:00:00 3.8 2 Sudeste 9 Sudeste 0 -- -- 100
2021-02-14 06:00:00 4 2 Noroeste 6 Noroeste 0 -- -- 100
2021-02-14 05:00:00 4.1 0 Calma 7 Sudeste 0 -- -- 99
2021-02-14 04:00:00 4.5 0 Calma 9 Norte 0 -- -- 99
2021-02-14 03:00:00 5.2 5 Noroeste 11 Norte 0 -- -- 99
2021-02-14 02:00:00 5.1 3 Sur 11 Nordeste 0 -- -- 99
2021-02-14 01:00:00 5.5 0 Calma 8 Norte 0 -- -- 100
2021-02-14 00:00:00 6 0 Calma 6 Noroeste 0 -- -- 98
2021-02-13 23:00:00 6.6 2 Sur 7 Noroeste 0 -- -- 97
2021-02-13 22:00:00 7.6 3 Noroeste 9 Sudeste 0 -- -- 96
2021-02-13 21:00:00 8.4 4 Noroeste 10 Nordeste 0 -- -- 96
2021-02-13 20:00:00 9.6 3 Noroeste 5 Noroeste 0 -- -- 92
2021-02-13 19:00:00 11.6 3 Sudoeste 8 Norte 0 -- -- 80
2021-02-13 18:00:00 14.3 3 Norte 9 Oeste 0 -- -- 65
2021-02-13 17:00:00 14.7 4 Sudoeste 9 Sudoeste 0 -- -- 65
2021-02-13 16:00:00 14.4 0 Calma 13 Norte 0 -- -- 67
2021-02-13 15:00:00 15.1 2 Noroeste 11 Norte 0 -- -- 68
2021-02-13 14:00:00 15.2 3 Noroeste 12 Norte 0.2 -- -- 64
2021-02-13 13:00:00 14.7 3 Noroeste 9 Norte 0 -- -- 71
2021-02-13 08:00:00 -- -- -- -- -- -- -- -- --
2021-02-13 07:00:00 9 3 Sudeste 5 Sudeste 0 -- -- 100
2021-02-13 06:00:00 9.4 0 Calma -- -- 0 -- -- 100
2021-02-13 05:00:00 9.7 0 Calma 2 Sudoeste 0 -- -- 100
2021-02-13 04:00:00 9.8 0 Calma 5 Noroeste 0 -- -- 100
2021-02-13 03:00:00 10.1 0 Calma 7 Noroeste 0 -- -- 99
2021-02-13 02:00:00 10.4 4 Norte 11 Oeste 0 -- -- 96
2021-02-13 01:00:00 10.5 5 Sudoeste 16 Sudoeste 1 -- -- 97
2021-02-13 00:00:00 10.7 0 Calma 13 Nordeste 0 -- -- 97
2021-02-12 23:00:00 10.6 6 Sudeste 16 Sudeste 2.4 -- -- 98
2021-02-12 22:00:00 10.9 4 Nordeste 17 Norte 3 -- -- 98
2021-02-12 21:00:00 10.9 7 Norte 24 Nordeste 5.8 -- -- 97
2021-02-12 20:00:00 10.9 6 Norte 29 Nordeste 4.6 -- -- 98
2021-02-12 19:00:00 11.2 10 Nordeste 32 Oeste 8 -- -- 98
2021-02-12 18:00:00 11.2 8 Noroeste 31 Norte 11.4 -- -- 98
2021-02-12 17:00:00 11.3 7 Noroeste 31 Oeste 0.8 -- -- 97
2021-02-12 16:00:00 11.3 6 Noroeste 40 Noroeste 0.2 -- -- 96
2021-02-12 15:00:00 11.4 7 Norte 33 Nordeste 4.6 -- -- 97
2021-02-12 14:00:00 11.6 6 Nordeste 19 Norte 0.8 -- -- 93
2021-02-12 13:00:00 11.2 9 Sudeste 26 Este 1.6 -- -- 96
2021-02-12 12:00:00 11.4 6 Norte 25 Norte 6.2 -- -- 97
2021-02-12 11:00:00 11.6 2 Sur 5 Norte 1.8 -- -- 100
2021-02-12 10:00:00 11.5 2 Sudeste 9 Sudeste 1 -- -- 98
2021-02-12 09:00:00 11.6 3 Nordeste 10 Nordeste 3 -- -- 97
2021-02-12 08:00:00 12.1 4 Norte 38 Noroeste 2.2 -- -- 94
2021-02-12 07:00:00 15.7 13 Sur 52 Sur 0 -- -- 63
2021-02-12 06:00:00 15.7 23 Sur 41 Sur 0 -- -- 65
2021-02-12 05:00:00 15.5 12 Sudeste 26 Sudeste 0 -- -- 67
2021-02-12 04:00:00 15.2 13 Sur 27 Sur 0 -- -- 69
2021-02-12 03:00:00 15.4 13 Sur 32 Este 0 -- -- 69
2021-02-12 02:00:00 15.9 17 Sudeste 31 Sudeste 0 -- -- 66
2021-02-12 01:00:00 15.4 12 Sudeste 24 Sudeste 0 -- -- 68
2021-02-12 00:00:00 12.2 8 Sudeste 19 Norte 0 -- -- 82
2021-02-11 23:00:00 10.9 9 Noroeste 19 Noroeste 0 -- -- 91
2021-02-11 22:00:00 11 13 Noroeste 16 Noroeste 0 -- -- 92
2021-02-11 21:00:00 11.9 8 Norte 12 Norte 0 -- -- 90
2021-02-11 20:00:00 13.6 6 Norte 14 Norte 0 -- -- 82
2021-02-11 19:00:00 16.4 5 Sur 18 Nordeste 0 -- -- 67
2021-02-11 18:00:00 17.6 9 Sur 14 Sudoeste 0 -- -- 70
2021-02-11 17:00:00 18.7 3 Sur 8 Sudoeste 0 -- -- 60
2021-02-11 16:00:00 19.2 0 Calma 11 Sudoeste 0 -- -- 57
2021-02-11 15:00:00 19.1 4 Sudeste 9 Nordeste 0 -- -- 58
2021-02-11 14:00:00 17.4 3 Sudoeste 14 Este 0 -- -- 65
2021-02-11 13:00:00 13.6 2 Sudoeste 7 Norte 0 -- -- 83
2021-02-11 12:00:00 11.4 3 Norte 12 Norte 0 -- -- 91
2021-02-11 11:00:00 9 4 Norte 10 Norte 0 -- -- 96
2021-02-11 10:00:00 6.6 3 Nordeste 12 Nordeste 0 -- -- 100
2021-02-11 09:00:00 5.2 5 Norte 9 Noroeste 0 -- -- 100
2021-02-11 08:00:00 4.1 2 Norte 12 Norte 0 -- -- 100
2021-02-11 07:00:00 4 4 Este 14 Norte 0 -- -- 100
2021-02-11 06:00:00 4.3 4 Nordeste 10 Norte 0 -- -- 100
2021-02-11 05:00:00 4.5 3 Norte 9 Nordeste 0 -- -- 100
2021-02-11 04:00:00 5 2 Norte 12 Norte 0.2 -- -- 100
2021-02-11 03:00:00 5.5 3 Sudeste 11 Norte 0 -- -- 99
2021-02-11 02:00:00 6.6 0 Calma 12 Norte 0 -- -- 96
2021-02-11 01:00:00 7.2 3 Norte 7 Noroeste 0 -- -- 97
2021-02-11 00:00:00 8 2 Norte 7 Noroeste 0 -- -- 98
2021-02-10 23:00:00 8.4 0 Calma 4 Norte 0 -- -- 97
2021-02-10 22:00:00 8.8 0 Calma 8 Norte 0 -- -- 96
2021-02-10 21:00:00 9 2 Nordeste 7 Este 0 -- -- 96
2021-02-10 20:00:00 9.1 0 Calma 7 Sur 0 -- -- 96
2021-02-10 19:00:00 9.4 0 Calma 7 Este 0 -- -- 94
2021-02-10 18:00:00 9.7 4 Noroeste 12 Norte 0 -- -- 93
2021-02-10 17:00:00 10 2 Norte 12 Sudoeste 0 -- -- 87
2021-02-10 16:00:00 10 2 Este 13 Nordeste 0.2 -- -- 97
2021-02-10 15:00:00 9.2 3 Norte 10 Este 0.6 -- -- 92
2021-02-10 14:00:00 9.1 3 Nordeste 18 Oeste 0.6 -- -- 90
2021-02-10 13:00:00 9.5 8 Sudoeste 21 Sudoeste 0.2 -- -- 78
2021-02-10 12:00:00 9.7 4 Oeste -- -- -- -- -- 74
2021-02-10 11:00:00 9.4 3 Sur 20 Oeste 0 -- -- 75
2021-02-10 10:00:00 7.5 0 Calma 11 Este 0.2 -- -- 98
2021-02-10 09:00:00 6.8 3 Noroeste 8 Norte 0.6 -- -- 98
2021-02-10 08:00:00 6.8 4 Norte 9 Norte 0.2 -- -- 95
2021-02-10 07:00:00 6.7 2 Norte 5 Sudoeste 0 -- -- 91
2021-02-10 06:00:00 7 3 Sur 11 Norte 0 -- -- 85
2021-02-10 05:00:00 7.5 9 Norte 15 Norte 0 -- -- 84
2021-02-10 04:00:00 8.1 3 Sudoeste 13 Noroeste 0 -- -- 77
2021-02-10 03:00:00 10.2 6 Sur 32 Sur 0 -- -- 59
2021-02-10 02:00:00 9.7 12 Sur 38 Sur 0 -- -- 65
2021-02-10 01:00:00 9.1 14 Sur 29 Sur 0 -- -- 72
2021-02-10 00:00:00 10 11 Sur 40 Sur 0 -- -- 73
2021-02-09 23:00:00 10.6 22 Sur 38 Sur 0 -- -- 64
2021-02-09 22:00:00 8.5 11 Este 24 Este 0 -- -- 73
2021-02-09 21:00:00 9 4 Sur 17 Sur 0 -- -- 70
2021-02-09 20:00:00 10.1 10 Nordeste 22 Sudeste 0 -- -- 67
2021-02-09 19:00:00 11.2 8 Este 31 Sur 0 -- -- 58
2021-02-09 18:00:00 12.2 7 Sur 39 Sudoeste 0 -- -- 59
2021-02-09 17:00:00 10.8 19 Sur 37 Sur 0 -- -- 79
2021-02-09 16:00:00 10.4 23 Sur 40 Sur 2.2 -- -- 89
2021-02-09 15:00:00 12 8 Sudeste 44 Sur 0.2 -- -- 75
2021-02-09 14:00:00 12.8 12 Sur 48 Sur 0 -- -- 69
2021-02-09 13:00:00 13.3 17 Sur 42 Sudeste 0 -- -- 60
2021-02-09 12:00:00 12.2 17 Sur 37 Sur 0 -- -- 62
2021-02-09 11:00:00 12.1 17 Sudeste 50 Sur 0 -- -- 59
2021-02-09 10:00:00 12.1 32 Sur 49 Sur 0 -- -- 64
2021-02-09 09:00:00 10.8 10 Sudeste 39 Sudeste 0 -- -- 71
2021-02-09 08:00:00 10.2 17 Sur 39 Sudoeste 0 -- -- 77
2021-02-09 07:00:00 11 22 Sur 55 Sur 0 -- -- 73
2021-02-09 06:00:00 10.2 19 Sur 36 Sur 0 -- -- 75
2021-02-09 05:00:00 8.4 6 Nordeste 15 Norte 0 -- -- 87
2021-02-09 04:00:00 7.9 7 Norte 13 Norte 0 -- -- 96
2021-02-09 03:00:00 8 3 Nordeste 11 Norte 0 -- -- 98
2021-02-09 02:00:00 7.8 3 Sudeste 17 Norte 0 -- -- 100
2021-02-09 01:00:00 7.7 6 Norte 10 Norte 0 -- -- 100
2021-02-09 00:00:00 8.1 3 Noroeste 13 Norte 0 -- -- 100
2021-02-08 23:00:00 8.5 3 Norte 8 Sudeste 0.2 -- -- 98
2021-02-08 22:00:00 8.9 4 Norte 12 Norte 0.8 -- -- 98
2021-02-08 21:00:00 9 2 Oeste 5 Sudoeste 0 -- -- 97
2021-02-08 20:00:00 9.1 0 Calma 8 Sudeste 0 -- -- 95
2021-02-08 19:00:00 9.5 4 Sur 12 Este 0 -- -- 93
2021-02-08 18:00:00 10.1 0 Calma 8 Este 0 -- -- 91
2021-02-08 17:00:00 10.8 2 Sur 18 Norte 0.8 -- -- 92
2021-02-08 16:00:00 10.7 4 Norte 22 Norte 2 -- -- 88
2021-02-08 15:00:00 12.4 3 Norte 8 Noroeste 0 -- -- 77
2021-02-08 14:00:00 11.2 2 Norte 7 Norte 0 -- -- 85
2021-02-08 13:00:00 9.6 3 Norte 10 Nordeste 0 -- -- 95
2021-02-08 12:00:00 8.8 5 Norte 15 Este 2.4 -- -- 99
2021-02-08 11:00:00 8.7 2 Nordeste 13 Este 1.2 -- -- 97
2021-02-08 10:00:00 8.7 8 Este 18 Este 1.6 -- -- 95
2021-02-08 09:00:00 9.2 8 Este 21 Sudeste 0.2 -- -- 89
2021-02-08 08:00:00 9.6 5 Norte 18 Nordeste 0 -- -- 87
2021-02-08 07:00:00 9.4 10 Norte 22 Sudeste 0.4 -- -- 85
2021-02-08 06:00:00 9.8 4 Este 37 Sudoeste 0.6 -- -- 85
2021-02-08 05:00:00 10.4 11 Sur 31 Sur 0.8 -- -- 80
2021-02-08 04:00:00 10.3 9 Nordeste 36 Este 0.4 -- -- 78
2021-02-08 03:00:00 10.6 14 Este 23 Sur 0 -- -- 72
2021-02-08 02:00:00 10 8 Sur 25 Este 0 -- -- 73
2021-02-08 01:00:00 9.6 9 Sur 25 Sudeste 0 -- -- 76
2021-02-08 00:00:00 7.9 7 Este 22 Sudeste 0 -- -- 92
2021-02-07 23:00:00 7.5 3 Norte 8 Norte 0.6 -- -- 93
2021-02-07 22:00:00 7.4 4 Norte 8 Noroeste 0.2 -- -- 90
2021-02-07 21:00:00 7.6 3 Noroeste 6 Noroeste 0 -- -- 87
2021-02-07 20:00:00 8.1 0 Calma 4 Sudoeste 0 -- -- 85
2021-02-07 19:00:00 8.7 3 Norte 7 Nordeste 0 -- -- 82
2021-02-07 18:00:00 10.1 4 Noroeste 14 Sur 0 -- -- 69
2021-02-07 17:00:00 11 0 Calma 8 Sudeste 0 -- -- 71
2021-02-07 16:00:00 11.3 2 Sudeste 7 Norte 0 -- -- 70
2021-02-07 15:00:00 10.5 2 Sudoeste 15 Sudoeste 0 -- -- 74
2021-02-07 14:00:00 10.4 8 Sur 18 Sudoeste 0 -- -- 71
2021-02-07 13:00:00 9 6 Sur 13 Sudoeste 0 -- -- 84
2021-02-07 12:00:00 7.8 2 Sudeste 7 Este 0 -- -- 98
2021-02-07 11:00:00 6.9 2 Norte 12 Norte 0.4 -- -- 98
2021-02-07 10:00:00 6.4 3 Este 8 Noroeste 0.4 -- -- 96
2021-02-07 09:00:00 6 0 Calma 7 Noroeste 0 -- -- 98
2021-02-07 08:00:00 5.7 0 Calma 5 Sudoeste 0 -- -- 100
2021-02-07 07:00:00 5.6 0 Calma 6 Este 0.2 -- -- 100
2021-02-07 06:00:00 5.6 0 Calma 5 Nordeste 1.4 -- -- 100
2021-02-07 05:00:00 5.6 0 Calma 6 Sur 0.4 -- -- 100
2021-02-07 04:00:00 5.6 0 Calma 6 Sur 1 -- -- 99
2021-02-07 03:00:00 5.7 2 Sudoeste 10 Sudeste 1.8 -- -- 98
2021-02-07 02:00:00 6 4 Noroeste 12 Oeste 2.4 -- -- 94
2021-02-07 01:00:00 6.2 0 Calma 13 Noroeste 0 -- -- 94
2021-02-07 00:00:00 6.1 3 Sudoeste 5 Noroeste 0.2 -- -- 98
2021-02-06 23:00:00 6.8 3 Sudoeste 11 Noroeste 0.6 -- -- 93
2021-02-06 22:00:00 7.3 3 Norte 22 Norte 0.4 -- -- 84
2021-02-06 21:00:00 8 3 Noroeste 12 Norte 0 -- -- 82
2021-02-06 20:00:00 8 0 Calma 11 Norte 0 -- -- 92
2021-02-06 19:00:00 7.7 0 Calma 13 Sudoeste 0.6 -- -- 96
2021-02-06 18:00:00 7.9 6 Norte 25 Sudoeste 5.2 -- -- 95
2021-02-06 17:00:00 8.6 6 Noroeste 38 Sudoeste 7.4 -- -- 98
2021-02-06 16:00:00 9 2 Sur 41 Noroeste 7 -- -- 98
2021-02-06 15:00:00 9.3 8 Noroeste 31 Noroeste 13.2 -- -- 99
2021-02-06 14:00:00 10.5 0 Calma 5 Norte 3.6 -- -- 100
2021-02-06 13:00:00 10.5 0 Calma 3 Sudeste 1 -- -- 100
2021-02-06 12:00:00 10.1 0 Calma 0 Calma 2 -- -- 100
2021-02-06 11:00:00 9.8 0 Calma 0 Calma 1.8 -- -- 100
2021-02-06 10:00:00 9.6 0 Calma 5 Sudoeste 0.6 -- -- 100
2021-02-06 09:00:00 9.6 0 Calma 4 Noroeste 0.6 -- -- 100
2021-02-06 08:00:00 9.5 0 Calma 6 Norte 0.8 -- -- 100
2021-02-06 07:00:00 9.6 0 Calma 10 Noroeste 0.4 -- -- 100
2021-02-06 06:00:00 9.6 0 Calma 9 Nordeste 0 -- -- 100
2021-02-06 05:00:00 9.6 2 Sudeste 4 Sudoeste 0 -- -- 100
2021-02-06 04:00:00 9.8 0 Calma 6 Sudoeste 0 -- -- 100
2021-02-06 03:00:00 10 3 Sudoeste 9 Norte 0 -- -- 100
2021-02-06 02:00:00 10.2 0 Calma 3 Sudoeste 0 -- -- 100
2021-02-06 01:00:00 10.2 3 Norte 5 Norte 0 -- -- 100
2021-02-06 00:00:00 10.3 0 Calma 4 Este 0 -- -- 100
2021-02-05 23:00:00 10.4 2 Este 8 Norte 0 -- -- 100
2021-02-05 22:00:00 10.4 0 Calma 5 Norte 0.2 -- -- 100
2021-02-05 21:00:00 10.5 0 Calma 6 Sudoeste 0 -- -- 100
2021-02-05 20:00:00 10.6 3 Sudoeste 6 Sudoeste 0.2 -- -- 99
2021-02-05 19:00:00 10.8 0 Calma 5 Este 0 -- -- 99
2021-02-05 18:00:00 11.2 4 Sudoeste 8 Sudoeste 0 -- -- 97
2021-02-05 17:00:00 12.1 4 Sur 9 Sudoeste 0 -- -- 95
2021-02-05 16:00:00 12.7 3 Sudoeste 7 Sudoeste 0 -- -- 93
2021-02-05 15:00:00 12.9 2 Sur 8 Sudoeste 0 -- -- 92
2021-02-05 14:00:00 14 0 Calma 7 Norte 0 -- -- 87
2021-02-05 13:00:00 13.2 3 Norte 8 Norte 0 -- -- 91
2021-02-05 12:00:00 12.1 3 Norte 6 Norte 0 -- -- 95
2021-02-05 11:00:00 11 2 Norte 5 Nordeste 0 -- -- 100
2021-02-05 10:00:00 10.8 0 Calma 5 Sur 0 -- -- 100
2021-02-05 09:00:00 10.6 0 Calma 5 Norte 0 -- -- 100
2021-02-05 08:00:00 10.6 0 Calma 8 Oeste 0 -- -- 100
2021-02-05 07:00:00 10.6 3 Sudeste 10 Nordeste 0.6 -- -- 100
2021-02-05 06:00:00 10.7 2 Este 8 Sur 0.2 -- -- 99
2021-02-05 05:00:00 10.8 4 Sudoeste 8 Sur 0 -- -- 98
2021-02-05 04:00:00 10.9 0 Calma 3 Este 0 -- -- 97
2021-02-05 03:00:00 11 0 Calma 6 Nordeste 0 -- -- 98
2021-02-05 02:00:00 11.1 0 Calma 6 Nordeste 0 -- -- 98
2021-02-05 01:00:00 11.2 3 Norte 9 Oeste 0 -- -- 97
2021-02-05 00:00:00 11.5 4 Norte 12 Noroeste 0 -- -- 96
2021-02-04 23:00:00 12 3 Norte 10 Oeste 0 -- -- 96
2021-02-04 22:00:00 11.9 0 Calma 10 Sudoeste 0 -- -- 95
2021-02-04 21:00:00 12 2 Sur 9 Sudoeste 0 -- -- 94
2021-02-04 20:00:00 12.8 0 Calma 6 Sudoeste 0 -- -- 89
2021-02-04 19:00:00 14 0 Calma 8 Sudoeste 0 -- -- 83
2021-02-04 18:00:00 15 0 Calma 10 Sudoeste 0 -- -- 77
2021-02-04 17:00:00 15.8 2 Sur 6 Noroeste 0 -- -- 74
2021-02-04 16:00:00 15.9 3 Noroeste 12 Norte 0 -- -- 72
2021-02-04 15:00:00 16.4 0 Calma 5 Sudoeste 0 -- -- 70
2021-02-04 14:00:00 15.2 2 Norte 4 Norte 0 -- -- 78
2021-02-04 13:00:00 14.1 0 Calma 5 Norte 0 -- -- 77
2021-02-04 12:00:00 14 0 Calma 14 Sudoeste 0 -- -- 77
2021-02-04 11:00:00 14.9 6 Sudoeste 31 Sur 0 -- -- 73
2021-02-04 10:00:00 15.1 5 Sur 32 Sudeste 0 -- -- 69
2021-02-04 09:00:00 14.9 12 Sur 31 Sur 0 -- -- 70
2021-02-04 08:00:00 15 15 Sur 31 Sudeste 0 -- -- 71
2021-02-04 07:00:00 14.9 13 Sur 18 Sur 0 -- -- 70
2021-02-04 06:00:00 14.9 6 Sudeste 19 Sudeste 0 -- -- 70
2021-02-04 05:00:00 14.7 11 Sudeste 21 Sudeste 0 -- -- 70
2021-02-04 04:00:00 14.8 10 Sudeste 23 Sudeste 0 -- -- 70
2021-02-04 03:00:00 14.6 10 Sur 26 Sudeste 0 -- -- 71
2021-02-04 02:00:00 14.4 12 Sur 32 Sudeste 0 -- -- 73
2021-02-04 01:00:00 14.4 21 Sudeste 39 Sudeste 0 -- -- 75
2021-02-04 00:00:00 13.1 5 Nordeste 12 Nordeste 0 -- -- 76
2021-02-03 23:00:00 13.7 0 Calma 19 Sur 0 -- -- 67
2021-02-03 22:00:00 13.8 14 Sur 22 Sur 0 -- -- 68
2021-02-03 21:00:00 14.3 15 Sur 26 Sur 0 -- -- 67
2021-02-03 20:00:00 14.4 20 Sur 30 Sudoeste 0 -- -- 69
2021-02-03 19:00:00 15 8 Sur 21 Sur 0 -- -- 63
2021-02-03 18:00:00 15.3 9 Sur 28 Sudoeste 0 -- -- 64
2021-02-03 17:00:00 16 11 Sudeste 22 Sudeste 0 -- -- 64
2021-02-03 16:00:00 16.2 12 Sudeste 32 Sudeste 0 -- -- 64
2021-02-03 15:00:00 17.8 14 Sur 34 Sur 0 -- -- 53
2021-02-03 14:00:00 18.7 19 Sur 41 Sur 0 -- -- 51
2021-02-03 13:00:00 17.4 15 Sur 28 Sur 0 -- -- 56
2021-02-03 12:00:00 17.2 9 Sur 28 Sur 0 -- -- 61
2021-02-03 11:00:00 17.8 17 Sur 39 Sudoeste 0 -- -- 57
2021-02-03 10:00:00 15.3 15 Sur 32 Sudoeste 0 -- -- 63
2021-02-03 09:00:00 14.6 11 Sur 29 Sur 0 -- -- 63
2021-02-03 08:00:00 14.3 14 Sur 30 Sur 0 -- -- 65
2021-02-03 07:00:00 14.6 18 Sur 43 Sudoeste 0 -- -- 64
2021-02-03 06:00:00 14.7 19 Sur 35 Sur 0 -- -- 63
2021-02-03 05:00:00 15.3 16 Sur 50 Sudoeste 0 -- -- 61
2021-02-03 04:00:00 15.5 25 Sur 54 Sur 0 -- -- 60
2021-02-03 03:00:00 15.8 9 Sudeste 44 Sur 0 -- -- 61
2021-02-03 02:00:00 15.7 18 Sur 34 Sur 0 -- -- 59
2021-02-03 01:00:00 15.4 25 Sur 51 Sudoeste 0 -- -- 61
2021-02-03 00:00:00 15.3 23 Sur 39 Sur 0 -- -- 62
2021-02-02 23:00:00 16.6 12 Sur 27 Sur 0 -- -- 59
2021-02-02 22:00:00 17.1 14 Sur 39 Sudoeste 0 -- -- 57
2021-02-02 21:00:00 17.4 10 Este 38 Sudeste 0 -- -- 57
2021-02-02 20:00:00 16.8 13 Este 31 Nordeste 0 -- -- 61
2021-02-02 19:00:00 16.8 16 Sur 39 Sudeste 0 -- -- 60
2021-02-02 18:00:00 16.8 10 Sudeste 34 Sudeste 0 -- -- 63
2021-02-02 17:00:00 17.7 16 Sur 34 Sur 0 -- -- 58
2021-02-02 16:00:00 19.2 13 Sur 22 Sudoeste 0 -- -- 58
2021-02-02 15:00:00 20.4 12 Sur 34 Sur 0 -- -- 52
2021-02-02 14:00:00 20.5 22 Sur 36 Sudoeste 0 -- -- 57
2021-02-02 13:00:00 20.1 12 Sur 18 Sudoeste 0 -- -- 64
2021-02-02 12:00:00 16.5 6 Nordeste 22 Este 0 -- -- 63
2021-02-02 11:00:00 14.3 6 Sudeste 23 Sudeste 0 -- -- 74
2021-02-02 10:00:00 12.4 7 Sudeste 19 Sur 0 -- -- 86
2021-02-02 09:00:00 9.4 9 Norte 14 Norte 0 -- -- 98
2021-02-02 08:00:00 9.6 5 Noroeste 16 Norte 0 -- -- 98
2021-02-02 07:00:00 8.9 6 Norte 12 Norte 0 -- -- 100
2021-02-02 06:00:00 9.5 8 Norte 14 Norte 0 -- -- 100
2021-02-02 05:00:00 9.8 5 Noroeste 13 Noroeste 0 -- -- 100
2021-02-02 04:00:00 10.4 5 Nordeste 12 Nordeste 0 -- -- 100
2021-02-02 03:00:00 11.1 5 Norte 12 Norte 0 -- -- 100
2021-02-02 02:00:00 11 6 Norte 15 Norte 0 -- -- 100
2021-02-02 01:00:00 11 5 Norte 12 Norte 0 -- -- 100
2021-02-02 00:00:00 11 4 Norte 9 Norte 0 -- -- 100
2021-02-01 23:00:00 11.2 7 Norte 14 Nordeste 0 -- -- 99
2021-02-01 22:00:00 10.9 6 Este 11 Este 0.6 -- -- 100
2021-02-01 21:00:00 11 2 Nordeste 7 Noroeste 2 -- -- 100
2021-02-01 20:00:00 11.4 0 Calma 5 Sur 0.8 -- -- 97
2021-02-01 19:00:00 11.9 2 Sudoeste 14 Oeste 0 -- -- 95
2021-02-01 18:00:00 12.7 3 Sur 6 Sudeste 0 -- -- 91
2021-02-01 17:00:00 13 0 Calma 18 Nordeste 0 -- -- 86
2021-02-01 16:00:00 12.8 4 Norte 22 Nordeste 0 -- -- 87
2021-02-01 15:00:00 12.6 13 Nordeste 32 Sudoeste 0.8 -- -- 90
2021-02-01 14:00:00 12.8 11 Este 39 Nordeste 0.2 -- -- 84
2021-02-01 13:00:00 12.8 10 Norte 33 Nordeste 0 -- -- 84
2021-02-01 12:00:00 13 8 Norte 24 Norte 0 -- -- 81
2021-02-01 11:00:00 13 6 Este 37 Oeste 0.2 -- -- 77
2021-02-01 10:00:00 12.9 12 Norte 45 Nordeste 0 -- -- 75
2021-02-01 09:00:00 13.1 9 Este 38 Nordeste 0 -- -- 70
2021-02-01 08:00:00 13 13 Norte 45 Nordeste 0 -- -- 73
2021-02-01 07:00:00 12.8 7 Nordeste 30 Norte 0 -- -- 74
2021-02-01 06:00:00 12.6 8 Norte 24 Nordeste 0 -- -- 77
2021-02-01 05:00:00 12.3 7 Nordeste 33 Nordeste 0 -- -- 78
2021-02-01 04:00:00 11.7 9 Nordeste 26 Nordeste 0.2 -- -- 86
2021-02-01 03:00:00 11.9 9 Nordeste 27 Oeste 0.6 -- -- 83
2021-02-01 02:00:00 11.5 3 Sudoeste 43 Norte 1 -- -- 89
2021-02-01 01:00:00 12.7 14 Norte 37 Norte 0.4 -- -- 84
2021-02-01 00:00:00 13.8 7 Sur 25 Oeste 0.2 -- -- 71
2021-01-31 23:00:00 12.7 8 Sudoeste 24 Oeste 0 -- -- 86
2021-01-31 22:00:00 10.6 3 Sur 15 Oeste 0.4 -- -- 100
2021-01-31 21:00:00 9.6 4 Norte 13 Norte 0 -- -- 100
2021-01-31 20:00:00 9.9 6 Norte 15 Norte 0 -- -- 100
2021-01-31 19:00:00 11.1 5 Norte 13 Norte 0 -- -- 97
2021-01-31 18:00:00 12.4 0 Calma 5 Norte 0 -- -- 93
2021-01-31 17:00:00 14.4 3 Sudoeste 8 Noroeste 0 -- -- 90
2021-01-31 16:00:00 12 4 Norte 13 Norte 0 -- -- 99
2021-01-31 15:00:00 10.8 5 Norte 13 Norte 0 -- -- 100
2021-01-31 14:00:00 10.4 5 Norte 12 Nordeste 0.2 -- -- 100
2021-01-31 13:00:00 10.2 5 Este 16 Nordeste 2.6 -- -- 97
2021-01-31 12:00:00 10.5 0 Calma 5 Nordeste 1.2 -- -- 97
2021-01-31 11:00:00 10.4 0 Calma 10 Norte 0.2 -- -- 94
2021-01-31 10:00:00 10.4 5 Noroeste 15 Nordeste 0 -- -- 84
2021-01-31 09:00:00 9.5 7 Oeste 22 Sudoeste 0.4 -- -- 91
2021-01-31 08:00:00 9.1 6 Oeste 28 Sudoeste 1.4 -- -- 95
2021-01-31 07:00:00 9.3 6 Sudoeste 30 Sudoeste 1.8 -- -- 95
2021-01-31 06:00:00 9.4 8 Sur 33 Sudoeste 1.2 -- -- 94
2021-01-31 05:00:00 10.1 11 Sur 32 Sur 0.4 -- -- 86
2021-01-31 04:00:00 10.6 12 Sudeste 39 Sudoeste 0 -- -- 81
2021-01-31 03:00:00 10.4 10 Este 46 Sudoeste 0 -- -- 84
2021-01-31 02:00:00 11 16 Oeste 45 Sudoeste 0 -- -- 78
2021-01-31 01:00:00 10.4 14 Sudoeste 36 Sudoeste 0.6 -- -- 78
2021-01-31 00:00:00 10.8 18 Sudoeste 45 Sudoeste 0 -- -- 73
2021-01-30 23:00:00 10.2 10 Sudoeste 33 Sudoeste 0 -- -- 76
2021-01-30 22:00:00 10.3 10 Sudoeste 31 Oeste 0.2 -- -- 74
2021-01-30 21:00:00 9.8 5 Sudeste 41 Sudoeste 0.2 -- -- 79
2021-01-30 20:00:00 10 0 Calma 9 Oeste 0 -- -- 77
2021-01-30 19:00:00 10.1 5 Oeste 14 Sur 0 -- -- 72
2021-01-30 18:00:00 10.7 3 Oeste 19 Oeste 0 -- -- 70
2021-01-30 17:00:00 10.2 4 Nordeste 13 Noroeste 0 -- -- 78
2021-01-30 16:00:00 10 5 Norte 12 Sudoeste 0 -- -- 89
2021-01-30 15:00:00 9.5 5 Nordeste 22 Oeste 1 -- -- 91
2021-01-30 14:00:00 10.2 5 Sudoeste 14 Sur 2 -- -- 93
2021-01-30 13:00:00 10.4 3 Norte 16 Nordeste 0 -- -- 96
2021-01-30 12:00:00 9.9 9 Norte 41 Noroeste 1.8 -- -- 95
2021-01-30 11:00:00 10.5 8 Norte 15 Este 0.6 -- -- 96
2021-01-30 10:00:00 10.5 6 Norte 20 Este 1 -- -- 97
2021-01-30 09:00:00 10.7 3 Sudoeste 30 Noroeste 7.2 -- -- 96
2021-01-30 08:00:00 12.5 6 Sudoeste 33 Sudoeste 0 -- -- 91
2021-01-30 07:00:00 13.5 10 Sudoeste 26 Sudoeste 0 -- -- 72
2021-01-30 06:00:00 12.6 5 Sudeste 26 Norte 5.4 -- -- 96
2021-01-30 05:00:00 14.8 13 Oeste 53 Sudoeste 1.2 -- -- 77
2021-01-30 04:00:00 16.8 13 Sur 34 Sur 0 -- -- 58
2021-01-30 03:00:00 16.7 14 Sur 53 Sur 0 -- -- 57
2021-01-30 02:00:00 16.2 12 Sudeste 37 Este 0 -- -- 66
2021-01-30 01:00:00 16.8 11 Sur 49 Sur 0 -- -- 62
2021-01-30 00:00:00 15.4 20 Sur 37 Sur 0 -- -- 73
2021-01-29 23:00:00 11.5 10 Norte 15 Noroeste 0 -- -- 98
2021-01-29 22:00:00 12.3 5 Norte 13 Norte 0 -- -- 98
2021-01-29 21:00:00 13.1 5 Norte 10 Noroeste 0 -- -- 94
2021-01-29 20:00:00 13.2 4 Nordeste 10 Nordeste 0 -- -- 98
2021-01-29 19:00:00 14.1 0 Calma 4 Sudoeste 0 -- -- 98
2021-01-29 18:00:00 14.7 3 Norte 4 Norte 0 -- -- 95
2021-01-29 17:00:00 16.2 2 Sudoeste 4 Sudoeste 0 -- -- 89
2021-01-29 16:00:00 16 5 Noroeste 8 Norte 0 -- -- 87
2021-01-29 15:00:00 15.4 4 Norte 9 Norte 0 -- -- 90
2021-01-29 14:00:00 15.3 0 Calma 4 Sudeste 0 -- -- 96
2021-01-29 13:00:00 14.4 0 Calma 8 Norte 0.6 -- -- 100
2021-01-29 12:00:00 13.3 3 Norte 6 Noroeste 0 -- -- 100
2021-01-29 11:00:00 11.9 2 Sur 4 Sudoeste 0.2 -- -- 100
2021-01-29 10:00:00 11.2 2 Sudoeste 9 Este 0.6 -- -- 100
2021-01-29 09:00:00 10.9 3 Sur 8 Sudeste 1.8 -- -- 100
2021-01-29 08:00:00 10.7 3 Norte 10 Norte 2.2 -- -- 100
2021-01-29 07:00:00 10.6 2 Oeste 5 Noroeste 2 -- -- 100
2021-01-29 06:00:00 10.5 3 Norte 7 Norte 0.4 -- -- 100
2021-01-29 05:00:00 10.5 5 Norte 8 Noroeste 0 -- -- 100
2021-01-29 04:00:00 10.5 6 Norte 12 Norte 0 -- -- 100
2021-01-29 03:00:00 10.4 2 Sudeste 9 Noroeste 0 -- -- 100
2021-01-29 02:00:00 10.3 3 Norte 9 Noroeste 0 -- -- 100
2021-01-29 01:00:00 10.8 0 Calma 7 Norte 0 -- -- 100
2021-01-29 00:00:00 10.8 3 Noroeste 13 Norte 0 -- -- 100
2021-01-28 23:00:00 11.2 6 Norte 13 Norte 0 -- -- 100
2021-01-28 22:00:00 11.3 6 Norte 16 Norte 0 -- -- 100
2021-01-28 21:00:00 11.6 4 Norte 13 Norte 0 -- -- 100
2021-01-28 20:00:00 12.3 5 Norte 11 Norte 0 -- -- 99
2021-01-28 19:00:00 14.1 3 Norte 9 Norte 0 -- -- 92
2021-01-28 18:00:00 17.1 3 Sudoeste 11 Sudoeste 0 -- -- 78
2021-01-28 17:00:00 19.7 5 Sudoeste 10 Sudoeste 0 -- -- 74
2021-01-28 16:00:00 19.6 3 Noroeste 8 Noroeste 0 -- -- 67
2021-01-28 15:00:00 19.3 4 Sur 6 Sudoeste 0 -- -- 79
2021-01-28 14:00:00 16.2 3 Norte 5 Sur 0 -- -- 86
2021-01-28 13:00:00 14.2 0 Calma 5 Sur 0 -- -- 94
2021-01-28 12:00:00 12.1 0 Calma 4 Sudoeste 0 -- -- 100
2021-01-28 11:00:00 10.8 0 Calma 4 Nordeste 0 -- -- 100
2021-01-28 10:00:00 10.2 0 Calma 4 Este 0 -- -- 100
2021-01-28 09:00:00 10.1 0 Calma 10 Este 0 -- -- 100
2021-01-28 08:00:00 10.5 6 Este 15 Este 0 -- -- 100
2021-01-28 07:00:00 11.2 5 Este 8 Este 0 -- -- 100
2021-01-28 06:00:00 11.5 2 Este 14 Este 0 -- -- 100
2021-01-28 05:00:00 11.8 3 Sudeste 8 Norte 0 -- -- 100
2021-01-28 04:00:00 11.7 7 Norte 9 Norte 0 -- -- 100
2021-01-28 03:00:00 12.1 4 Norte 5 Norte 0.2 -- -- 100
2021-01-28 02:00:00 12.6 3 Sudeste 5 Sudeste 0.4 -- -- 100
2021-01-28 01:00:00 12.4 0 Calma 2 Norte 0.8 -- -- 100
2021-01-28 00:00:00 12.7 0 Calma 4 Norte 0.4 -- -- 100
2021-01-27 23:00:00 13 0 Calma 2 Sudoeste 0.6 -- -- 100
2021-01-27 22:00:00 13 0 Calma 5 Norte 0.4 -- -- 100
2021-01-27 21:00:00 13.2 0 Calma 8 Norte 0 -- -- 100
2021-01-27 20:00:00 13.5 0 Calma 4 Oeste 0 -- -- 98
2021-01-27 19:00:00 14.2 0 Calma 8 Nordeste 0 -- -- 95
2021-01-27 18:00:00 14.5 9 Norte 18 Norte 0 -- -- 92
2021-01-27 17:00:00 14.8 5 Norte 13 Nordeste 0 -- -- 92
2021-01-27 16:00:00 14.4 6 Norte 17 Oeste 0 -- -- 96
2021-01-27 15:00:00 13.3 4 Norte 15 Nordeste 0.4 -- -- 100
2021-01-27 14:00:00 13.2 0 Calma 10 Noroeste 3 -- -- 100
2021-01-27 13:00:00 12.9 6 Norte 20 Norte 1.4 -- -- 100
2021-01-27 12:00:00 12.9 6 Norte 27 Nordeste 1.2 -- -- 100
2021-01-27 11:00:00 12.9 9 Norte 31 Norte 0.2 -- -- 100
2021-01-27 10:00:00 13.1 8 Nordeste 32 Nordeste 3 -- -- 100
2021-01-27 09:00:00 13 7 Norte 21 Nordeste 5.6 -- -- 100
2021-01-27 08:00:00 13.1 8 Norte 25 Norte 2.8 -- -- 100
2021-01-27 07:00:00 13.4 5 Norte 19 Este 5 -- -- 100
2021-01-27 06:00:00 13.4 4 Norte 21 Norte 5.2 -- -- 100
2021-01-27 05:00:00 13.2 5 Nordeste 21 Nordeste 0.6 -- -- 100
2021-01-27 04:00:00 12.2 4 Norte 13 Norte 1.8 -- -- 100
2021-01-27 03:00:00 11.2 0 Calma 7 Noroeste 3.2 -- -- 100
2021-01-27 02:00:00 11.1 0 Calma 8 Norte 2 -- -- 100
2021-01-27 01:00:00 11 2 Norte 7 Norte 4.8 -- -- 100
2021-01-27 00:00:00 11 3 Norte 5 Norte 3.4 -- -- 100
2021-01-26 23:00:00 11 3 Norte 6 Norte 1.4 -- -- 100
2021-01-26 22:00:00 10.9 4 Norte 7 Norte 0.2 -- -- 100
2021-01-26 21:00:00 11.2 0 Calma 7 Norte 0.4 -- -- 99
2021-01-26 20:00:00 11.9 2 Norte 8 Norte 0 -- -- 94
2021-01-26 19:00:00 12 4 Norte 7 Norte 0 -- -- 92
2021-01-26 18:00:00 12.4 4 Norte 7 Norte 0 -- -- 88
2021-01-26 17:00:00 12.6 2 Noroeste 8 Norte 0 -- -- 82
2021-01-26 16:00:00 12.1 3 Norte 8 Noroeste 0 -- -- 77
2021-01-26 15:00:00 11.3 2 Noroeste 5 Norte 0 -- -- 84
2021-01-26 14:00:00 9.9 3 Norte 5 Norte 0 -- -- 78
2021-01-26 13:00:00 8.9 0 Calma 4 Norte 0 -- -- 83
2021-01-26 12:00:00 8 0 Calma 5 Sudoeste 0 -- -- 89
2021-01-26 11:00:00 5.3 0 Calma 5 Noroeste 0 -- -- 100
2021-01-26 10:00:00 2.6 0 Calma 11 Este 0 -- -- 100
2021-01-26 09:00:00 1 2 Sur 7 Norte 0 -- -- 100
2021-01-26 08:00:00 1.3 2 Noroeste 6 Norte 0 -- -- 100
2021-01-26 07:00:00 2 4 Norte 8 Noroeste 0 -- -- 100
2021-01-26 06:00:00 2.4 3 Oeste 10 Norte 0 -- -- 100
2021-01-26 05:00:00 3 2 Sudeste 6 Este 0 -- -- 100
2021-01-26 04:00:00 3.8 3 Este 10 Nordeste 0 -- -- 100
2021-01-26 03:00:00 4.3 3 Este 9 Nordeste 0 -- -- 100
2021-01-26 02:00:00 5 4 Este 11 Este 0 -- -- 100
2021-01-26 01:00:00 5.2 0 Calma 5 Sudeste 0 -- -- 100
2021-01-26 00:00:00 5.8 2 Sudeste 9 Este 0 -- -- 100
2021-01-25 23:00:00 6.4 2 Sur 5 Sudeste 0 -- -- 100
2021-01-25 22:00:00 6.9 0 Calma 4 Norte 0 -- -- 100
2021-01-25 21:00:00 7.1 0 Calma 4 Sur 0.2 -- -- 100
2021-01-25 20:00:00 7.2 0 Calma 7 Sudoeste 0.4 -- -- 100
2021-01-25 19:00:00 7.4 0 Calma 5 Nordeste 0.8 -- -- 100
2021-01-25 18:00:00 7.6 0 Calma 14 Noroeste 0.2 -- -- 99
2021-01-25 17:00:00 7.6 5 Noroeste 24 Norte 0.2 -- -- 97
2021-01-25 16:00:00 8.6 4 Noroeste 12 Noroeste 1 -- -- 99
2021-01-25 15:00:00 8.8 0 Calma 15 Noroeste 0.4 -- -- 99
2021-01-25 14:00:00 8.9 6 Norte 15 Norte 0 -- -- 98
2021-01-25 13:00:00 8.8 5 Noroeste 13 Noroeste 0.8 -- -- 100
2021-01-25 12:00:00 8.8 0 Calma 4 Norte 0 -- -- 100
2021-01-25 11:00:00 8.4 0 Calma 2 Sur 0.8 -- -- 100
2021-01-25 10:00:00 7.9 0 Calma 3 Norte 0.6 -- -- 100
2021-01-25 09:00:00 7.6 0 Calma 2 Norte 0.2 -- -- 100
2021-01-25 08:00:00 7.7 0 Calma 2 Sudeste 1 -- -- 100
2021-01-25 07:00:00 7.7 0 Calma 4 Norte 0.4 -- -- 100
2021-01-25 06:00:00 7.8 3 Noroeste 5 Norte 0.2 -- -- 100
2021-01-25 05:00:00 8 0 Calma 7 Norte 0.2 -- -- 100
2021-01-25 04:00:00 8.1 0 Calma 5 Norte 0.4 -- -- 100
2021-01-25 03:00:00 7.9 4 Sur 7 Sudeste 0.4 -- -- 100
2021-01-25 02:00:00 8 0 Calma 5 Sur 0.8 -- -- 100
2021-01-25 01:00:00 8 2 Sur 4 Sudeste 0.4 -- -- 100
2021-01-25 00:00:00 8.1 3 Sur 6 Norte 0.4 -- -- 99